Hauptseite
METAR-TAF:

METAR-TAF

Flughäfen :

Flughafen Genua

Genua, Italien

Breite: 44-25N, Länge: 008-51E, Höhe: 2 m

Beobachtung

Neuester Wetterbericht von vor 12 Minuten, um 03:20 UTC
Wind 7 kt aus Ost/Nordost, Böen bis zu 17 kt, variierte zwischen Nord/Nordost und Südost
Temperatur 18°C
Luftfeuchtigkeit 68%
Luftdruck 1017 hPa
Sichtweite: 6000 m

METAR: LIMJ 160320Z 06007G17KT 020V130 6000 NSC 18/12 Q1017

Zeit: 05:32 (03:32 UTC)

Prognose

Neuester Wetterbericht von vor 16 Stunden und 32 Minuten, um 11:00 UTC
Gültige Prognose vom 15 um 12 UTC bis 16 um 12 UTC
Wind 13 kt aus Nord
Sichtweite 10 km oder mehr
Aufgelockert bewölkt in der Höhe von 7000 ft

TAF: LIMJ 151100Z 1512/1612 01013KT 9999 SCT070

Wetterbeobachtungen und Prognosen von mehr als 4000 Flughäfen (METAR und TAF Bericht).

Die verfügbaren Stationen werden durch gelbe und rote Markierungen auf der Karte dargestellt.

Führen Sie die Maus auf sie, um den Namen der Station zu sehen.

Darauf klicken, um die Beobachtung von Wetterbeobachtungen und Prognosen zu sehen.

Um die Karte zu ändern : klicken Sie auf den grünen Tasten mit einem schwarzen Kreuz Zum Vergrößern, auf den grünen Button mit einem Gedankenstrich zu verkleinern, oder auf die grünen Pfeile für benachbarte Karten.


METAR-TAF: